Main page
METAR-TAF:

METAR-TAF

Airports :

Oxford, England

Oxford Airport

latitude: 51-50-13N, longitude: 1-19-12W, elevation: 82 m

Current weather observation

The report was made 15 minutes ago, at 13:20 UTC
Wind 19 kt from the West
Temperature 12°C
Humidity 62%
Pressure 1014 hPa
Visibility 10 km or more
Few clouds at a height of 3200 ft
Scattered clouds at a height of 4400 ft

METAR: EGTK 221320Z 28019KT 9999 FEW032 SCT044 12/05 Q1014

Time: 14:35 (13:35 UTC)

Forecast

The report was made 2 hours and 38 minutes ago, at 10:57 UTC
Forecast valid from 22 at 12 UTC to 22 at 21 UTC
Wind 16 kt from the West
Visibility 10 km or more
Scattered clouds at a height of 4000 ft
Temporary
from 22 at 12 UTC to 22 at 16 UTC
Wind 17 kt from the West with gusts up to 27 kt
Probability 40% :
Temporary
from 22 at 15 UTC to 22 at 18 UTC
Visibility: 8000 m
rain showers

TAF: EGTK 221057Z 2212/2221 27016KT 9999 SCT040 TEMPO 2212/2216 27017G27KT PROB40 TEMPO 2215/2218 8000 SHRA

Weather observations and forecasts of more than 4000 airports (METAR and TAF reports).

The available stations are represented by yellow and red dots on the map.

Hover mouse over dot to see the name of the station.

Then click to see weather observations and forecasts.

To change the map : click on the green buttons with a black cross to zoom in, on the green button with a dash to zoom out, or on the green arrows for adjacent maps.


METAR-TAF: